Nearby METAR Reports

 

KSJC - San Jose, California, USA
Distance from station: Γρέγος 14km
Ενημερώθηκε: 25/10/2021 12:53
Βροχή, Mist, Συννεφιά
Βροχή, Mist, Συννεφιά
 Φυσάει από Σιροκολέβαντο
Ανεμος: Σιροκολέβαντο 13 km/h
Θερμοκρασία: 14°C
Πιάνει Δροσιά σε: 13°C
Υγρασία: 94%
Βαρόμετρο: 1004.4 hPa
Περίληψη: Βροχή, Mist
Clouds: Συννεφιά
Visibility: 6 km
Cloud details: Σχεδόν νεφελώδης 1494 m
Συννεφιά 2134 m
2021/10/25 09:53 KSJC 250953Z AUTO 11007KT 4SM RA BR BKN049 OVC070 14/13 A2966 RMK AO2 SLP041 P0019 T01390133
KNUQ - Moffett Nas/Mtn, California, USA
Distance from station: ΤΡΑΜΟΥΝΤΑΝΑ 14km
Ενημερώθηκε: 22/10/2021 12:15
NOT Current
Συννεφιά
Συννεφιά
 Φυσάει από Σιροκολέβαντο
Ανεμος: Σιροκολέβαντο 22 km/h
Θερμοκρασία: 18°C
Πιάνει Δροσιά σε: 14°C
Υγρασία: 78%
Βαρόμετρο: 1015.6 hPa
Clouds: Συννεφιά
Visibility: 16 km
Cloud details: Few Clouds 671 m
Συννεφιά 914 m
2021/10/22 09:15 KNUQ 220915Z AUTO 11012KT 10SM FEW022 OVC030 18/14 A2999 RMK AO2
 
KPAO - Palo Alto, California, USA
Distance from station: Μαΐστρο 23km
Ενημερώθηκε: 25/10/2021 06:47
NOT Current
Βροχή, Συννεφιά
Βροχή, Συννεφιά
 Φυσάει από calm
Ανεμος: Απνοια
Θερμοκρασία: 14°C
Πιάνει Δροσιά σε: 13°C
Υγρασία: 94%
Βαρόμετρο: 1003.7 hPa
Περίληψη: Βροχή
Clouds: Συννεφιά
Visibility: 11 km
Cloud details: Σχεδόν νεφελώδης 762 m
Συννεφιά 1524 m
2021/10/25 03:47 KPAO 250347Z 00000KT 7SM RA BKN025 OVC050 14/13 A2964 RMK LAST
KRHV - San Jose/Reid, California, USA
Distance from station: Γρέγολεβάντες 19km
Ενημερώθηκε: 25/10/2021 07:50
NOT Current
Βροχή, Συννεφιά
Βροχή, Συννεφιά
 Φυσάει από ΛΕΒΑΝΤΕΣ
Ανεμος: ΛΕΒΑΝΤΕΣ 11 km/h
Θερμοκρασία: 15°C
Πιάνει Δροσιά σε: 14°C
Υγρασία: 94%
Βαρόμετρο: 1004.4 hPa
Περίληψη: Βροχή
Clouds: Συννεφιά
Visibility: 5 km
Cloud details: Σχεδόν νεφελώδης 762 m
Συννεφιά 1829 m
2021/10/25 04:50 KRHV 250450Z 09006KT 3SM RA BKN025 OVC060 15/14 A2966 RMK LAST
 
KOAK - Oakland, California, USA
Distance from station: Μαΐστρο 50km
Ενημερώθηκε: 25/10/2021 13:14
Εντονη βροχή, Mist, Συννεφιά
Εντονη βροχή, Mist, Συννεφιά
 Φυσάει από Οστριογάρμπι
Ανεμος: Οστριογάρμπι 15 km/h
Θερμοκρασία: 14°C
Πιάνει Δροσιά σε: 14°C
Υγρασία: 100%
Βαρόμετρο: 1003.4 hPa
Περίληψη: Εντονη βροχή, Mist
Clouds: Συννεφιά
Visibility: 3 km
Cloud details: Σχεδόν νεφελώδης 213 m
Συννεφιά 518 m
2021/10/25 10:14 KOAK 251014Z 21008KT 2SM +RA BR BKN007 OVC017 14/14 A2963 RMK AO2 P0010 T01440139 $
KSQL - San Carlos Airpo, California, USA
Distance from station: Μαϊστράλι 34km
Ενημερώθηκε: 25/10/2021 13:15
Ασθενής βροχή, Συννεφιά
Ασθενής βροχή, Συννεφιά
 Φυσάει από Σιρκόστρια
Ανεμος: Σιρκόστρια 19 km/h
Θερμοκρασία: 14°C
Πιάνει Δροσιά σε: 14°C
Υγρασία: 100%
Βαρόμετρο: 1003.7 hPa
Περίληψη: Ασθενής βροχή
Clouds: Συννεφιά
Visibility: 8 km
Cloud details: Σχεδόν νεφελώδης 1128 m
Σχεδόν νεφελώδης 1463 m
Συννεφιά 1676 m
2021/10/25 10:15 KSQL 251015Z AUTO 15010KT 5SM -RA BKN037 BKN048 OVC055 14/14 A2964 RMK AO2 P0001
 
KSFO - San Francisco, California, USA
Distance from station: Μαϊστράλι 49km
Ενημερώθηκε: 25/10/2021 13:27
Βροχή, Mist, Συννεφιά
Βροχή, Mist, Συννεφιά
 Φυσάει από Σιρόκος
Ανεμος: Σιρόκος 6 km/h
Θερμοκρασία: 14°C
Πιάνει Δροσιά σε: 13°C
Υγρασία: 94%
Βαρόμετρο: 1003 hPa
Περίληψη: Βροχή, Mist
Clouds: Συννεφιά
Visibility: 5 km
Cloud details: Μερικώς νεφελώδης 488 m
Σχεδόν νεφελώδης 671 m
Συννεφιά 1067 m
2021/10/25 10:27 KSFO 251027Z 13003KT 3SM RA BR SCT016 BKN022 OVC035 14/13 A2962 RMK AO2 CIG 016 RWY L10 P0006 T01390128
KE16 - San Martin, California, USA
Distance from station: Σιροκολέβαντο 43km
Ενημερώθηκε: 25/10/2021 13:15
Mist, Συννεφιά
Mist, Συννεφιά
 Φυσάει από ΟΣΤΡΙΑ
Ανεμος: ΟΣΤΡΙΑ 11 km/h
Θερμοκρασία: 13°C
Πιάνει Δροσιά σε: 13°C
Υγρασία: 100%
Βαρόμετρο: 1005.4 hPa
Περίληψη: Mist
Clouds: Συννεφιά
Visibility: 5 km
Cloud details: Σχεδόν νεφελώδης 427 m
Σχεδόν νεφελώδης 610 m
Συννεφιά 1433 m
2021/10/25 10:15 KE16 251015Z AUTO 17006KT 3SM BR BKN014 BKN020 OVC047 13/13 A2969 RMK AO2 PWINO PNO
 
KWVI - Watsonville, California, USA
Distance from station: Σιρκόστρια 44km
Ενημερώθηκε: 25/10/2021 13:17
Βροχή, Mist, Συννεφιά
Βροχή, Mist, Συννεφιά
 Φυσάει από Γαρμπής
Ανεμος: Γαρμπής 22 km/h
Θερμοκρασία: 13°C
Πιάνει Δροσιά σε: 13°C
Υγρασία: 100%
Βαρόμετρο: 1005.1 hPa
Περίληψη: Βροχή, Mist
Clouds: Συννεφιά
Visibility: 6 km
Cloud details: Συννεφιά 122 m
2021/10/25 10:17 KWVI 251017Z AUTO 22012KT 4SM RA BR OVC004 13/13 A2968 RMK AO2 P0006 T01280128
KHAF - Half Moon Bay, California, USA
Distance from station: Πουνεντομάιστρο 50km
Ενημερώθηκε: 25/10/2021 13:15
Mist, Συννεφιά
Mist, Συννεφιά
 Φυσάει από ΟΣΤΡΙΑ
Ανεμος: ΟΣΤΡΙΑ 22 km/h
Θερμοκρασία: 14°C
Πιάνει Δροσιά σε: 13°C
Υγρασία: 94%
Βαρόμετρο: 1004.1 hPa
Περίληψη: Mist
Clouds: Συννεφιά
Visibility: 2 km
Cloud details: Συννεφιά 152 m
2021/10/25 10:15 KHAF 251015Z AUTO 19012KT 1 1/4SM BR OVC005 14/13 A2965 RMK AO2 P0007
 
KHWD - Hayward, California, USA
Distance from station: ΤΡΑΜΟΥΝΤΑΝΑ 44km
Ενημερώθηκε: 25/10/2021 12:54
Ασθενής βροχή, Συννεφιά
Ασθενής βροχή, Συννεφιά
 Φυσάει από Σιρόκος
Ανεμος: Σιρόκος 19 km/h
Θερμοκρασία: 13°C
Πιάνει Δροσιά σε: 13°C
Υγρασία: 100%
Βαρόμετρο: 1003 hPa
Περίληψη: Ασθενής βροχή
Clouds: Συννεφιά
Visibility: 14 km
Cloud details: Σχεδόν νεφελώδης 2286 m
Συννεφιά 2591 m
2021/10/25 09:54 KHWD 250954Z 14010KT 9SM -RA BKN075 OVC085 13/13 A2962 RMK AO2 SLP041 P0004 T01330128
KLVK - Livermore, California, USA
Distance from station: Γρεγοτραμουντάνα 51km
Ενημερώθηκε: 25/10/2021 12:53
Ασθενής βροχή, Συννεφιά
Ασθενής βροχή, Συννεφιά
 Φυσάει από ΟΣΤΡΙΑ
Ανεμος: ΟΣΤΡΙΑ 11 km/h
Θερμοκρασία: 13°C
Πιάνει Δροσιά σε: 12°C
Υγρασία: 94%
Βαρόμετρο: 1003.7 hPa
Περίληψη: Ασθενής βροχή
Clouds: Συννεφιά
Visibility: 14 km
Cloud details: Μερικώς νεφελώδης 1433 m
Συννεφιά 2134 m
2021/10/25 09:53 KLVK 250953Z AUTO 17006KT 9SM -RA SCT047 OVC070 13/12 A2964 RMK AO2 SLP033 P0013 T01330122
Arillas Webcam
Arillas sky Webcam
Afionas Webcam
Afionas Sky Cam
Valanio Webcam
Valanio Webcam
Arillas beach Webcam
Arillas beach Webcam